createdAt,value
2022-10-19T00:00:47.858Z,13.41
2022-10-19T00:03:28.430Z,13.42
2022-10-19T00:05:55.157Z,13.45
2022-10-19T00:08:21.785Z,13.46
2022-10-19T00:10:48.373Z,13.47
2022-10-19T00:13:15.029Z,13.47
2022-10-19T00:15:41.867Z,13.47
2022-10-19T00:18:08.983Z,13.47
2022-10-19T00:20:36.572Z,13.47
2022-10-19T00:23:03.371Z,13.47
2022-10-19T00:25:30.017Z,13.48
2022-10-19T00:27:56.756Z,13.46
2022-10-19T00:30:23.718Z,13.43
2022-10-19T00:32:50.338Z,13.38
2022-10-19T00:35:17.122Z,13.36
2022-10-19T00:37:44.019Z,13.34
2022-10-19T00:40:11.307Z,13.35
2022-10-19T00:42:38.129Z,13.34
2022-10-19T00:45:12.351Z,13.33
2022-10-19T00:47:39.851Z,13.33
2022-10-19T00:50:07.546Z,13.31
2022-10-19T00:52:34.415Z,13.27
2022-10-19T00:55:01.944Z,13.25
2022-10-19T00:58:30.001Z,13.28
2022-10-19T01:01:01.138Z,13.27
2022-10-19T01:03:28.710Z,13.27
2022-10-19T01:05:56.052Z,13.28
2022-10-19T01:08:23.319Z,13.27
2022-10-19T01:11:08.508Z,13.27
2022-10-19T01:13:41.215Z,13.29
2022-10-19T01:16:19.820Z,13.30
2022-10-19T01:19:02.778Z,13.31
2022-10-19T01:21:54.150Z,13.29
2022-10-19T01:24:41.273Z,13.23
2022-10-19T01:27:52.888Z,13.19
2022-10-19T01:30:44.342Z,13.18
2022-10-19T01:33:22.413Z,13.21
2022-10-19T01:36:22.812Z,13.19
2022-10-19T01:39:08.017Z,13.18
2022-10-19T01:41:57.811Z,13.15
2022-10-19T01:44:44.747Z,13.10
2022-10-19T01:47:25.539Z,13.06
2022-10-19T01:50:25.163Z,13.06
2022-10-19T01:52:54.805Z,13.06
2022-10-19T01:55:22.352Z,13.08
2022-10-19T01:57:58.777Z,13.06
2022-10-19T02:00:27.745Z,13.05
2022-10-19T02:02:55.461Z,13.04
2022-10-19T02:05:28.168Z,13.06
2022-10-19T02:07:59.677Z,13.05
2022-10-19T02:10:28.701Z,13.04
2022-10-19T02:12:57.903Z,13.02
2022-10-19T02:15:27.599Z,12.97
2022-10-19T02:17:59.185Z,12.96
2022-10-19T02:20:27.967Z,12.95
2022-10-19T02:22:55.003Z,12.95
2022-10-19T02:25:23.423Z,12.97
2022-10-19T02:27:50.342Z,12.97
2022-10-19T02:30:21.243Z,12.97
2022-10-19T02:32:50.055Z,12.95
2022-10-19T02:35:17.374Z,12.94
2022-10-19T02:37:44.779Z,12.93
2022-10-19T02:40:12.149Z,12.94
2022-10-19T02:42:43.912Z,12.95
2022-10-19T02:45:27.840Z,12.95
2022-10-19T02:48:00.694Z,12.93
2022-10-19T02:50:27.957Z,12.93
2022-10-19T02:52:54.898Z,12.94
2022-10-19T02:55:21.736Z,12.94
2022-10-19T02:57:48.638Z,12.93
2022-10-19T03:00:15.869Z,12.85
2022-10-19T03:02:42.798Z,12.76
2022-10-19T03:05:09.774Z,12.72
2022-10-19T03:07:37.022Z,12.64
2022-10-19T03:10:04.481Z,12.58
2022-10-19T03:12:31.344Z,12.55
2022-10-19T03:14:58.212Z,12.54
2022-10-19T03:17:25.146Z,12.53
2022-10-19T03:19:52.024Z,12.49
2022-10-19T03:22:18.837Z,12.46
2022-10-19T03:24:45.722Z,12.49
2022-10-19T03:27:12.685Z,12.53
2022-10-19T03:29:39.541Z,12.55
2022-10-19T03:32:06.542Z,12.57
2022-10-19T03:34:33.439Z,12.57
2022-10-19T03:37:00.337Z,12.57
2022-10-19T03:39:27.176Z,12.58
2022-10-19T03:41:54.040Z,12.60
2022-10-19T03:44:20.964Z,12.62
2022-10-19T03:46:47.838Z,12.62
2022-10-19T03:49:14.768Z,12.62
2022-10-19T03:51:41.709Z,12.64
2022-10-19T03:54:14.194Z,12.68
2022-10-19T03:56:42.119Z,12.70
2022-10-19T03:59:13.976Z,12.71
2022-10-19T04:01:43.865Z,12.72
2022-10-19T04:04:17.096Z,12.67
2022-10-19T04:06:46.414Z,12.63
2022-10-19T04:09:15.854Z,12.58
2022-10-19T04:11:43.360Z,12.52
2022-10-19T04:14:19.104Z,12.46
2022-10-19T04:16:54.422Z,12.33
2022-10-19T04:19:22.212Z,12.27
2022-10-19T04:21:49.405Z,12.23
2022-10-19T04:24:18.122Z,12.18
2022-10-19T04:26:48.113Z,12.18
2022-10-19T04:29:16.343Z,12.21
2022-10-19T04:31:43.373Z,12.24
2022-10-19T04:34:10.390Z,12.17
2022-10-19T04:36:37.617Z,12.12
2022-10-19T04:39:05.245Z,12.08
2022-10-19T04:41:32.757Z,12.06
2022-10-19T04:44:02.452Z,12.02
2022-10-19T04:46:30.306Z,11.98
2022-10-19T04:48:58.796Z,12.00
2022-10-19T04:51:26.597Z,11.98
2022-10-19T04:53:57.010Z,11.99
2022-10-19T04:56:27.115Z,11.93
2022-10-19T04:58:56.986Z,11.87
2022-10-19T05:01:25.633Z,11.88
2022-10-19T05:03:54.706Z,11.84
2022-10-19T05:06:21.922Z,11.85
2022-10-19T05:08:52.202Z,11.84
2022-10-19T05:11:20.180Z,11.86
2022-10-19T05:13:47.951Z,11.86
2022-10-19T05:16:18.472Z,11.82
2022-10-19T05:18:50.066Z,11.81
2022-10-19T05:21:17.779Z,11.77
2022-10-19T05:23:45.290Z,11.72
2022-10-19T05:26:17.521Z,11.73
2022-10-19T05:28:59.930Z,11.72
2022-10-19T05:31:29.801Z,11.77
2022-10-19T05:33:57.178Z,11.83
2022-10-19T05:36:27.064Z,11.87
2022-10-19T05:38:55.441Z,11.90
2022-10-19T05:41:23.791Z,11.88
2022-10-19T05:43:56.868Z,11.89
2022-10-19T05:46:25.925Z,11.91
2022-10-19T05:48:55.343Z,11.94
2022-10-19T05:51:23.549Z,11.94
2022-10-19T05:53:51.876Z,11.94
2022-10-19T05:56:21.484Z,11.92
2022-10-19T05:58:49.297Z,11.92
2022-10-19T06:01:18.594Z,11.92
2022-10-19T06:03:46.644Z,11.90
2022-10-19T06:06:13.710Z,11.84
2022-10-19T06:08:40.766Z,11.77
2022-10-19T06:11:16.858Z,11.73
2022-10-19T06:13:45.063Z,11.69
2022-10-19T06:16:14.586Z,11.63
2022-10-19T06:18:42.355Z,11.55
2022-10-19T06:21:14.529Z,11.50
2022-10-19T06:26:14.622Z,11.47
2022-10-19T06:28:43.660Z,11.48
2022-10-19T06:31:12.209Z,11.48
2022-10-19T06:33:40.345Z,11.44
2022-10-19T06:36:09.866Z,11.40
2022-10-19T06:38:37.273Z,11.37
2022-10-19T06:41:04.360Z,11.37
2022-10-19T06:43:31.771Z,11.34
2022-10-19T06:45:58.840Z,11.31
2022-10-19T06:48:25.714Z,11.26
2022-10-19T06:50:57.213Z,11.21
2022-10-19T06:53:24.677Z,11.20
2022-10-19T06:55:51.562Z,11.22
2022-10-19T06:58:18.424Z,11.18
2022-10-19T07:00:45.470Z,11.16
2022-10-19T07:03:12.328Z,11.14
2022-10-19T07:05:39.243Z,11.12
2022-10-19T07:08:06.228Z,11.10
2022-10-19T07:10:33.157Z,11.11
2022-10-19T07:13:00.025Z,11.11
2022-10-19T07:15:26.915Z,11.12
2022-10-19T07:17:53.845Z,11.13
2022-10-19T07:20:20.732Z,11.15
2022-10-19T07:22:47.626Z,11.14
2022-10-19T07:25:14.581Z,11.14
2022-10-19T07:27:41.717Z,11.12
2022-10-19T07:30:09.092Z,11.07
2022-10-19T07:32:35.980Z,11.06
2022-10-19T07:35:03.104Z,11.07
2022-10-19T07:37:29.957Z,11.07
2022-10-19T07:39:56.958Z,11.08
2022-10-19T07:42:23.942Z,11.10
2022-10-19T07:44:50.752Z,11.11
2022-10-19T07:47:17.689Z,11.12
2022-10-19T07:49:44.762Z,11.15
2022-10-19T07:52:11.714Z,11.16
2022-10-19T07:54:38.588Z,11.13
2022-10-19T07:57:05.543Z,11.13
2022-10-19T07:59:32.494Z,11.15
2022-10-19T08:02:01.989Z,11.17
2022-10-19T08:04:59.122Z,11.21
2022-10-19T08:07:15.944Z,11.21
2022-10-19T08:09:58.291Z,11.25
2022-10-19T08:12:25.255Z,11.30
2022-10-19T08:14:53.170Z,11.28
2022-10-19T08:17:20.080Z,11.26
2022-10-19T08:19:47.330Z,11.26
2022-10-19T08:22:14.527Z,11.26
2022-10-19T08:24:41.532Z,11.29
2022-10-19T08:27:08.890Z,11.30
2022-10-19T08:29:35.771Z,11.30
2022-10-19T08:32:02.915Z,11.33
2022-10-19T08:34:29.806Z,11.35
2022-10-19T08:36:56.752Z,11.36
2022-10-19T08:39:23.943Z,11.34
2022-10-19T08:42:03.034Z,11.31
2022-10-19T08:44:52.079Z,11.30
2022-10-19T08:47:25.018Z,11.31
2022-10-19T08:49:52.069Z,11.30
2022-10-19T08:52:23.989Z,11.31
2022-10-19T08:55:00.480Z,11.33
2022-10-19T08:58:06.043Z,11.34
2022-10-19T09:00:50.490Z,11.33
2022-10-19T09:03:56.554Z,11.35
2022-10-19T09:06:52.170Z,11.35
2022-10-19T09:09:20.630Z,11.33
2022-10-19T09:11:50.201Z,11.31
2022-10-19T09:14:47.869Z,11.30
2022-10-19T09:17:18.613Z,11.31
2022-10-19T09:19:45.593Z,11.34
2022-10-19T09:22:30.256Z,11.37
2022-10-19T09:25:20.385Z,11.38
2022-10-19T09:27:52.580Z,11.38
2022-10-19T09:30:22.796Z,11.38
2022-10-19T09:33:02.184Z,11.35
2022-10-19T09:35:48.108Z,11.38
2022-10-19T09:38:19.369Z,11.40
2022-10-19T09:40:46.418Z,11.37
2022-10-19T09:43:21.047Z,11.32
2022-10-19T09:46:20.561Z,11.27
2022-10-19T09:48:50.111Z,11.25
2022-10-19T09:51:18.269Z,11.26
2022-10-19T09:53:55.456Z,11.27
2022-10-19T09:56:25.389Z,11.28
2022-10-19T09:58:55.110Z,11.28
2022-10-19T10:01:43.054Z,11.30
2022-10-19T10:04:16.199Z,11.28
2022-10-19T10:06:46.237Z,11.27
2022-10-19T10:09:25.762Z,11.27
2022-10-19T10:11:56.889Z,11.24
2022-10-19T10:14:31.207Z,11.23
2022-10-19T10:17:03.801Z,11.21
2022-10-19T10:19:32.962Z,11.20
2022-10-19T10:22:00.016Z,11.20
2022-10-19T10:24:32.195Z,11.21
2022-10-19T10:27:05.694Z,11.19
2022-10-19T10:29:35.251Z,11.22
2022-10-19T10:32:13.446Z,11.23
2022-10-19T10:34:50.964Z,11.19
2022-10-19T10:37:28.097Z,11.12
2022-10-19T10:39:59.195Z,11.05
2022-10-19T10:42:42.596Z,11.04
2022-10-19T10:45:28.908Z,11.07
2022-10-19T10:47:56.875Z,11.13
2022-10-19T10:50:32.144Z,11.18
2022-10-19T10:53:07.602Z,11.22
2022-10-19T10:55:34.719Z,11.22
2022-10-19T10:58:17.859Z,11.18
2022-10-19T11:00:47.467Z,11.16
2022-10-19T11:03:21.542Z,11.15
2022-10-19T11:05:56.547Z,11.11
2022-10-19T11:08:48.872Z,11.08
2022-10-19T11:11:24.557Z,11.05
2022-10-19T11:13:58.690Z,11.02
2022-10-19T11:16:38.096Z,11.04
2022-10-19T11:19:31.538Z,11.10
2022-10-19T11:22:13.348Z,11.18
2022-10-19T11:25:15.242Z,11.23
2022-10-19T11:27:55.083Z,11.19
2022-10-19T11:30:23.617Z,11.14
2022-10-19T11:33:09.941Z,11.11
2022-10-19T11:35:52.670Z,11.10
2022-10-19T11:38:37.907Z,11.12
2022-10-19T11:41:28.246Z,11.16
2022-10-19T11:44:19.948Z,11.20
2022-10-19T11:47:10.890Z,11.20
2022-10-19T11:49:58.110Z,11.14
2022-10-19T11:52:49.604Z,11.04
2022-10-19T11:55:35.004Z,10.98
2022-10-19T11:58:30.017Z,10.99
2022-10-19T12:01:21.481Z,11.07
2022-10-19T12:03:57.491Z,11.08
2022-10-19T12:06:53.609Z,11.03
2022-10-19T12:09:35.631Z,10.94
2022-10-19T12:12:30.314Z,10.94
2022-10-19T12:15:23.406Z,10.94
2022-10-19T12:17:53.714Z,10.98
2022-10-19T12:20:42.658Z,11.05
2022-10-19T12:23:32.767Z,11.08
2022-10-19T12:26:03.829Z,11.09
2022-10-19T12:28:35.119Z,11.10
2022-10-19T12:31:04.216Z,11.08
2022-10-19T12:33:37.712Z,11.03
2022-10-19T12:36:24.306Z,11.02
2022-10-19T12:38:59.026Z,11.04
2022-10-19T12:41:35.636Z,11.08
2022-10-19T12:47:01.547Z,11.07
2022-10-19T12:49:28.523Z,11.04
2022-10-19T12:52:00.244Z,11.04
2022-10-19T12:54:32.940Z,11.04
2022-10-19T12:57:02.488Z,11.02
2022-10-19T12:59:38.942Z,10.98
2022-10-19T13:02:28.844Z,10.93
2022-10-19T13:04:55.958Z,10.90
2022-10-19T13:07:25.977Z,10.89
2022-10-19T13:09:59.687Z,10.89
2022-10-19T13:12:28.521Z,10.87
2022-10-19T13:15:03.594Z,10.89
2022-10-19T13:17:36.664Z,10.90
2022-10-19T13:20:12.788Z,10.85
2022-10-19T13:22:52.481Z,10.78
2022-10-19T13:25:27.565Z,10.69
2022-10-19T13:28:17.219Z,10.62
2022-10-19T13:30:44.151Z,10.57
2022-10-19T13:33:29.163Z,10.60
2022-10-19T13:35:58.884Z,10.68
2022-10-19T13:41:18.615Z,10.76
2022-10-19T13:43:55.332Z,10.72
2022-10-19T13:46:28.035Z,10.70
2022-10-19T13:49:01.302Z,10.67
2022-10-19T13:51:31.488Z,10.64
2022-10-19T13:54:04.461Z,10.66
2022-10-19T13:56:44.880Z,10.63
2022-10-19T13:59:30.140Z,10.55
2022-10-19T14:02:18.668Z,10.50
2022-10-19T14:05:05.262Z,10.47
2022-10-19T14:07:46.219Z,10.41
2022-10-19T14:10:22.741Z,10.38
2022-10-19T14:12:56.388Z,10.37
2022-10-19T14:15:33.005Z,10.37
2022-10-19T14:18:03.613Z,10.34
2022-10-19T14:20:38.329Z,10.30
2022-10-19T14:23:27.064Z,10.24
2022-10-19T14:26:00.530Z,10.21
2022-10-19T14:28:28.092Z,10.19
2022-10-19T14:30:58.005Z,10.17
2022-10-19T14:33:25.506Z,10.14
2022-10-19T14:35:53.662Z,10.09
2022-10-19T14:38:36.310Z,10.08
2022-10-19T14:41:06.077Z,10.06
2022-10-19T14:43:34.030Z,10.04
2022-10-19T14:46:06.725Z,9.99
2022-10-19T14:48:45.191Z,9.99
2022-10-19T14:51:48.508Z,10.01
2022-10-19T14:54:35.687Z,9.98
2022-10-19T14:57:26.482Z,9.98
2022-10-19T15:00:00.250Z,9.95
2022-10-19T15:02:32.203Z,9.90
2022-10-19T15:05:01.684Z,9.86
2022-10-19T15:07:39.238Z,9.87
2022-10-19T15:10:17.034Z,9.85
2022-10-19T15:12:44.905Z,9.83
2022-10-19T15:15:24.614Z,9.84
2022-10-19T15:17:54.222Z,9.83
2022-10-19T15:20:43.871Z,9.83
2022-10-19T15:23:31.070Z,9.86
2022-10-19T15:26:16.999Z,9.88
2022-10-19T15:28:48.481Z,9.93
2022-10-19T15:31:29.308Z,9.99
2022-10-19T15:34:01.097Z,10.04
2022-10-19T15:36:30.002Z,10.07
2022-10-19T15:39:32.709Z,10.08
2022-10-19T15:42:22.609Z,10.08
2022-10-19T15:44:49.621Z,10.05
2022-10-19T15:47:18.472Z,10.02
2022-10-19T15:49:45.405Z,10.00
2022-10-19T15:52:14.991Z,9.99
2022-10-19T15:54:42.456Z,10.00
2022-10-19T15:57:24.094Z,10.02
2022-10-19T15:59:51.089Z,10.03
2022-10-19T16:02:18.106Z,10.03
2022-10-19T16:04:44.974Z,10.02
2022-10-19T16:07:21.312Z,10.01
2022-10-19T16:09:48.197Z,9.96
2022-10-19T16:12:15.230Z,9.94
2022-10-19T16:14:42.148Z,9.92
2022-10-19T16:17:12.571Z,9.89
2022-10-19T16:19:39.438Z,9.88
2022-10-19T16:22:06.283Z,9.87
2022-10-19T16:24:33.615Z,9.86
2022-10-19T16:27:00.654Z,9.85
2022-10-19T16:29:29.135Z,9.84
2022-10-19T16:31:56.363Z,9.81
2022-10-19T16:34:23.397Z,9.78
2022-10-19T16:36:50.407Z,9.73
2022-10-19T16:39:17.467Z,9.68
2022-10-19T16:41:44.339Z,9.65
2022-10-19T16:44:12.251Z,9.64
2022-10-19T16:46:39.158Z,9.63
2022-10-19T16:49:06.059Z,9.62
2022-10-19T16:51:35.627Z,9.59
2022-10-19T16:54:05.186Z,9.57
2022-10-19T16:56:33.083Z,9.53
2022-10-19T16:59:06.027Z,9.49
2022-10-19T17:01:34.424Z,9.44
2022-10-19T17:04:01.418Z,9.41
2022-10-19T17:06:28.594Z,9.40
2022-10-19T17:11:44.483Z,9.36
2022-10-19T17:14:12.349Z,9.32
2022-10-19T17:16:39.706Z,9.27
2022-10-19T17:19:08.018Z,9.23
2022-10-19T17:21:38.081Z,9.19
2022-10-19T17:24:07.619Z,9.16
2022-10-19T17:26:38.022Z,9.15
2022-10-19T17:29:05.940Z,9.14
2022-10-19T17:31:32.938Z,9.12
2022-10-19T17:34:01.398Z,9.09
2022-10-19T17:36:31.235Z,9.05
2022-10-19T17:38:59.093Z,9.02
2022-10-19T17:41:27.374Z,8.94
2022-10-19T17:43:55.504Z,8.90
2022-10-19T17:46:25.958Z,8.86
2022-10-19T17:48:52.962Z,8.82
2022-10-19T17:51:28.853Z,8.80
2022-10-19T17:53:58.571Z,8.79
2022-10-19T17:56:26.273Z,8.77
2022-10-19T17:58:53.917Z,8.77
2022-10-19T18:01:21.860Z,8.75
2022-10-19T18:03:49.875Z,8.71
2022-10-19T18:06:25.772Z,8.66
2022-10-19T18:08:54.905Z,8.61
2022-10-19T18:11:28.147Z,8.57
2022-10-19T18:13:58.293Z,8.57
2022-10-19T18:16:28.282Z,8.55
2022-10-19T18:18:56.328Z,8.52
2022-10-19T18:21:28.146Z,8.48
2022-10-19T18:23:56.453Z,8.44
2022-10-19T18:26:27.268Z,8.40
2022-10-19T18:28:55.740Z,8.36
2022-10-19T18:31:25.861Z,8.32
2022-10-19T18:34:04.819Z,8.29
2022-10-19T18:36:32.732Z,8.27
2022-10-19T18:39:01.759Z,8.26
2022-10-19T18:41:29.522Z,8.23
2022-10-19T18:44:00.748Z,8.20
2022-10-19T18:46:27.733Z,8.17
2022-10-19T18:48:54.979Z,8.13
2022-10-19T18:51:23.089Z,8.10
2022-10-19T18:53:50.223Z,8.07
2022-10-19T18:56:19.435Z,8.03
2022-10-19T18:58:46.917Z,8.02
2022-10-19T19:01:20.310Z,7.99
2022-10-19T19:03:52.108Z,7.96
2022-10-19T19:06:28.390Z,7.94
2022-10-19T19:08:56.857Z,7.89
2022-10-19T19:11:31.738Z,7.85
2022-10-19T19:14:23.562Z,7.82
2022-10-19T19:16:50.445Z,7.81
2022-10-19T19:19:19.123Z,7.79
2022-10-19T19:21:46.827Z,7.77
2022-10-19T19:24:17.106Z,7.74
2022-10-19T19:26:47.836Z,7.70
2022-10-19T19:29:16.080Z,7.65
2022-10-19T19:31:43.382Z,7.62
2022-10-19T19:34:10.475Z,7.58
2022-10-19T19:36:39.370Z,7.55
2022-10-19T19:39:06.280Z,7.55
2022-10-19T19:41:33.598Z,7.56
2022-10-19T19:44:00.829Z,7.57
2022-10-19T19:46:28.012Z,7.55
2022-10-19T19:49:02.828Z,7.51
2022-10-19T19:51:31.457Z,7.46
2022-10-19T19:53:58.920Z,7.43
2022-10-19T19:56:26.627Z,7.40
2022-10-19T19:58:59.161Z,7.37
2022-10-19T20:01:26.811Z,7.33
2022-10-19T20:03:53.802Z,7.32
2022-10-19T20:06:23.662Z,7.31
2022-10-19T20:08:56.015Z,7.28
2022-10-19T20:11:25.144Z,7.24
2022-10-19T20:13:52.257Z,7.20
2022-10-19T20:16:25.122Z,7.16
2022-10-19T20:19:00.618Z,7.13
2022-10-19T20:21:27.626Z,7.12
2022-10-19T20:23:54.507Z,7.12
2022-10-19T20:26:23.589Z,7.12
2022-10-19T20:28:51.127Z,7.09
2022-10-19T20:31:19.314Z,7.05
2022-10-19T20:33:47.408Z,7.01
2022-10-19T20:36:17.107Z,6.97
2022-10-19T20:38:50.254Z,6.94
2022-10-19T20:41:18.784Z,6.93
2022-10-19T20:43:45.762Z,6.92
2022-10-19T20:46:15.509Z,6.91
2022-10-19T20:48:42.462Z,6.89
2022-10-19T20:51:15.155Z,6.87
2022-10-19T20:53:45.765Z,6.86
2022-10-19T20:56:15.122Z,6.84
2022-10-19T20:58:43.254Z,6.82
2022-10-19T21:01:18.328Z,6.80
2022-10-19T21:03:53.802Z,6.80
2022-10-19T21:06:23.793Z,6.80
2022-10-19T21:08:50.885Z,6.78
2022-10-19T21:11:23.780Z,6.74
2022-10-19T21:14:00.401Z,6.71
2022-10-19T21:16:35.261Z,6.67
2022-10-19T21:19:13.572Z,6.64
2022-10-19T21:21:42.953Z,6.59
2022-10-19T21:24:13.769Z,6.54
2022-10-19T21:26:41.573Z,6.51
2022-10-19T21:29:10.650Z,6.51
2022-10-19T21:31:45.173Z,6.51
2022-10-19T21:34:17.826Z,6.49
2022-10-19T21:36:44.623Z,6.48
2022-10-19T21:39:11.829Z,6.44
2022-10-19T21:41:38.831Z,6.43
2022-10-19T21:44:08.769Z,6.41
2022-10-19T21:46:35.634Z,6.38
2022-10-19T21:49:02.770Z,6.32
2022-10-19T21:51:38.687Z,6.28
2022-10-19T21:54:07.803Z,6.25
2022-10-19T21:56:34.766Z,6.24
2022-10-19T21:59:01.678Z,6.24
2022-10-19T22:01:30.177Z,6.23
2022-10-19T22:03:58.782Z,6.22
2022-10-19T22:06:28.293Z,6.21
2022-10-19T22:08:56.320Z,6.18
2022-10-19T22:11:23.940Z,6.13
2022-10-19T22:13:58.815Z,6.10
2022-10-19T22:16:27.675Z,6.09
2022-10-19T22:18:55.649Z,6.08
2022-10-19T22:21:31.093Z,6.10
2022-10-19T22:24:07.376Z,6.08
2022-10-19T22:26:37.730Z,6.06
2022-10-19T22:29:06.054Z,6.03
2022-10-19T22:31:33.670Z,5.99
2022-10-19T22:34:03.928Z,5.95
2022-10-19T22:36:30.975Z,5.91
2022-10-19T22:38:57.886Z,5.86
2022-10-19T22:41:24.697Z,5.84
2022-10-19T22:43:51.605Z,5.84
2022-10-19T22:46:18.527Z,5.83
2022-10-19T22:48:45.351Z,5.81
2022-10-19T22:51:12.336Z,5.80
2022-10-19T22:53:39.230Z,5.78
2022-10-19T22:56:06.717Z,5.75
2022-10-19T22:58:33.517Z,5.71
2022-10-19T23:01:01.730Z,5.68
2022-10-19T23:03:28.619Z,5.64
2022-10-19T23:05:55.605Z,5.63
2022-10-19T23:08:22.422Z,5.62
2022-10-19T23:10:49.384Z,5.61
2022-10-19T23:13:16.334Z,5.60
2022-10-19T23:15:44.213Z,5.58
2022-10-19T23:18:12.306Z,5.57
2022-10-19T23:20:39.181Z,5.55
2022-10-19T23:23:05.981Z,5.53
2022-10-19T23:28:04.950Z,5.49
2022-10-19T23:30:31.774Z,5.48
2022-10-19T23:32:58.667Z,5.46
2022-10-19T23:35:25.471Z,5.45
2022-10-19T23:37:52.390Z,5.42
2022-10-19T23:40:19.197Z,5.39
2022-10-19T23:42:46.109Z,5.35
2022-10-19T23:45:14.676Z,5.33
2022-10-19T23:47:41.649Z,5.31
2022-10-19T23:50:08.638Z,5.31
2022-10-19T23:52:35.697Z,5.32
2022-10-19T23:55:03.003Z,5.32
2022-10-19T23:57:29.910Z,5.30
2022-10-19T23:59:56.800Z,5.27
